sensor_id;sensor_type;location;lat;lon;timestamp;temperature;humidity
7576;DHT22;3829;50.798;4.358;2022-12-19T00:00:46;4.20;99.90
7576;DHT22;3829;50.798;4.358;2022-12-19T00:03:12;4.20;99.90
7576;DHT22;3829;50.798;4.358;2022-12-19T00:05:39;4.30;99.90
7576;DHT22;3829;50.798;4.358;2022-12-19T00:08:08;4.30;99.90
7576;DHT22;3829;50.798;4.358;2022-12-19T00:10:37;4.30;99.90
7576;DHT22;3829;50.798;4.358;2022-12-19T00:13:02;4.40;99.90
7576;DHT22;3829;50.798;4.358;2022-12-19T00:15:28;4.40;99.90
7576;DHT22;3829;50.798;4.358;2022-12-19T00:17:54;4.50;99.90
7576;DHT22;3829;50.798;4.358;2022-12-19T00:20:19;4.60;99.90
7576;DHT22;3829;50.798;4.358;2022-12-19T00:22:45;4.60;99.90
7576;DHT22;3829;50.798;4.358;2022-12-19T00:25:11;4.60;99.90
7576;DHT22;3829;50.798;4.358;2022-12-19T00:27:36;4.60;99.90
7576;DHT22;3829;50.798;4.358;2022-12-19T00:30:02;4.60;99.90
7576;DHT22;3829;50.798;4.358;2022-12-19T00:32:28;4.60;99.90
7576;DHT22;3829;50.798;4.358;2022-12-19T00:34:53;4.60;99.90
7576;DHT22;3829;50.798;4.358;2022-12-19T00:37:19;4.70;99.90
7576;DHT22;3829;50.798;4.358;2022-12-19T00:39:44;4.70;99.90
7576;DHT22;3829;50.798;4.358;2022-12-19T00:42:10;4.70;99.90
7576;DHT22;3829;50.798;4.358;2022-12-19T00:44:35;4.80;99.90
7576;DHT22;3829;50.798;4.358;2022-12-19T00:47:01;4.80;99.90
7576;DHT22;3829;50.798;4.358;2022-12-19T00:49:26;4.90;99.90
7576;DHT22;3829;50.798;4.358;2022-12-19T00:51:52;4.90;99.90
7576;DHT22;3829;50.798;4.358;2022-12-19T00:54:17;5.00;99.90
7576;DHT22;3829;50.798;4.358;2022-12-19T00:56:43;5.10;99.90
7576;DHT22;3829;50.798;4.358;2022-12-19T00:59:09;5.20;99.90
7576;DHT22;3829;50.798;4.358;2022-12-19T01:01:37;5.20;99.90
7576;DHT22;3829;50.798;4.358;2022-12-19T01:04:05;5.20;99.90
7576;DHT22;3829;50.798;4.358;2022-12-19T01:06:31;5.20;99.90
7576;DHT22;3829;50.798;4.358;2022-12-19T01:08:57;5.30;99.90
7576;DHT22;3829;50.798;4.358;2022-12-19T01:11:23;5.40;99.90
7576;DHT22;3829;50.798;4.358;2022-12-19T01:14:09;5.50;99.90
7576;DHT22;3829;50.798;4.358;2022-12-19T01:16:35;5.60;99.90
7576;DHT22;3829;50.798;4.358;2022-12-19T01:19:01;5.60;99.90
7576;DHT22;3829;50.798;4.358;2022-12-19T01:21:26;5.70;99.90
7576;DHT22;3829;50.798;4.358;2022-12-19T01:23:52;5.70;99.90
7576;DHT22;3829;50.798;4.358;2022-12-19T01:26:18;5.70;99.90
7576;DHT22;3829;50.798;4.358;2022-12-19T01:28:43;5.70;99.90
7576;DHT22;3829;50.798;4.358;2022-12-19T01:31:09;5.80;99.90
7576;DHT22;3829;50.798;4.358;2022-12-19T01:33:34;5.90;99.90
7576;DHT22;3829;50.798;4.358;2022-12-19T01:36:00;6.00;99.90
7576;DHT22;3829;50.798;4.358;2022-12-19T01:38:32;6.10;99.90
7576;DHT22;3829;50.798;4.358;2022-12-19T01:40:58;6.10;99.90
7576;DHT22;3829;50.798;4.358;2022-12-19T01:43:25;6.20;99.90
7576;DHT22;3829;50.798;4.358;2022-12-19T01:46:03;6.20;99.90
7576;DHT22;3829;50.798;4.358;2022-12-19T01:48:39;6.30;99.90
7576;DHT22;3829;50.798;4.358;2022-12-19T01:51:12;6.40;99.90
7576;DHT22;3829;50.798;4.358;2022-12-19T01:53:59;6.40;99.90
7576;DHT22;3829;50.798;4.358;2022-12-19T01:56:34;6.60;99.90
7576;DHT22;3829;50.798;4.358;2022-12-19T01:59:05;6.60;99.90
7576;DHT22;3829;50.798;4.358;2022-12-19T02:01:33;6.70;99.90
7576;DHT22;3829;50.798;4.358;2022-12-19T02:04:00;6.70;99.90
7576;DHT22;3829;50.798;4.358;2022-12-19T02:06:27;6.70;99.90
7576;DHT22;3829;50.798;4.358;2022-12-19T02:08:54;6.80;99.90
7576;DHT22;3829;50.798;4.358;2022-12-19T02:11:20;6.80;99.90
7576;DHT22;3829;50.798;4.358;2022-12-19T02:13:46;6.80;99.90
7576;DHT22;3829;50.798;4.358;2022-12-19T02:16:46;6.80;99.90
7576;DHT22;3829;50.798;4.358;2022-12-19T02:24:44;6.90;99.90
7576;DHT22;3829;50.798;4.358;2022-12-19T02:35:32;6.90;99.90
7576;DHT22;3829;50.798;4.358;2022-12-19T02:41:02;6.80;99.90
7576;DHT22;3829;50.798;4.358;2022-12-19T02:43:26;6.80;99.90
7576;DHT22;3829;50.798;4.358;2022-12-19T02:45:54;6.80;99.90
7576;DHT22;3829;50.798;4.358;2022-12-19T02:48:21;6.90;99.90
7576;DHT22;3829;50.798;4.358;2022-12-19T02:50:47;6.80;99.90
7576;DHT22;3829;50.798;4.358;2022-12-19T02:53:14;6.80;99.90
7576;DHT22;3829;50.798;4.358;2022-12-19T03:01:35;6.80;99.90
7576;DHT22;3829;50.798;4.358;2022-12-19T03:07:05;6.80;99.90
7576;DHT22;3829;50.798;4.358;2022-12-19T03:13:01;6.90;99.90
7576;DHT22;3829;50.798;4.358;2022-12-19T03:15:30;6.90;99.90
7576;DHT22;3829;50.798;4.358;2022-12-19T03:17:58;6.90;99.90
7576;DHT22;3829;50.798;4.358;2022-12-19T03:20:49;6.90;99.90
7576;DHT22;3829;50.798;4.358;2022-12-19T03:23:17;6.90;99.90
7576;DHT22;3829;50.798;4.358;2022-12-19T03:25:46;6.90;99.90
7576;DHT22;3829;50.798;4.358;2022-12-19T03:28:20;6.90;99.90
7576;DHT22;3829;50.798;4.358;2022-12-19T03:30:48;6.90;99.90
7576;DHT22;3829;50.798;4.358;2022-12-19T03:33:15;6.90;99.90
7576;DHT22;3829;50.798;4.358;2022-12-19T03:35:44;6.90;99.90
7576;DHT22;3829;50.798;4.358;2022-12-19T03:38:12;6.90;99.90
7576;DHT22;3829;50.798;4.358;2022-12-19T03:40:40;6.90;99.90
7576;DHT22;3829;50.798;4.358;2022-12-19T03:43:08;7.00;99.90
7576;DHT22;3829;50.798;4.358;2022-12-19T03:48:23;7.10;99.90
7576;DHT22;3829;50.798;4.358;2022-12-19T03:51:15;7.10;99.90
7576;DHT22;3829;50.798;4.358;2022-12-19T03:53:58;7.10;99.90
7576;DHT22;3829;50.798;4.358;2022-12-19T03:56:30;7.20;99.90
7576;DHT22;3829;50.798;4.358;2022-12-19T03:59:21;7.20;99.90
7576;DHT22;3829;50.798;4.358;2022-12-19T04:01:45;7.30;99.90
7576;DHT22;3829;50.798;4.358;2022-12-19T04:04:12;7.30;99.90
7576;DHT22;3829;50.798;4.358;2022-12-19T04:06:39;7.40;99.90
7576;DHT22;3829;50.798;4.358;2022-12-19T04:09:07;7.40;99.90
7576;DHT22;3829;50.798;4.358;2022-12-19T04:11:37;7.50;99.90
7576;DHT22;3829;50.798;4.358;2022-12-19T04:14:07;7.50;99.90
7576;DHT22;3829;50.798;4.358;2022-12-19T04:19:25;7.50;99.90
7576;DHT22;3829;50.798;4.358;2022-12-19T04:22:05;7.50;99.90
7576;DHT22;3829;50.798;4.358;2022-12-19T04:24:36;7.50;99.90
7576;DHT22;3829;50.798;4.358;2022-12-19T04:27:05;7.60;99.90
7576;DHT22;3829;50.798;4.358;2022-12-19T04:29:34;7.60;99.90
7576;DHT22;3829;50.798;4.358;2022-12-19T04:32:03;7.60;99.90
7576;DHT22;3829;50.798;4.358;2022-12-19T04:34:32;7.60;99.90
7576;DHT22;3829;50.798;4.358;2022-12-19T04:37:01;7.70;99.90
7576;DHT22;3829;50.798;4.358;2022-12-19T04:39:27;7.70;99.90
7576;DHT22;3829;50.798;4.358;2022-12-19T04:41:52;7.70;99.90
7576;DHT22;3829;50.798;4.358;2022-12-19T04:44:18;7.70;99.90
7576;DHT22;3829;50.798;4.358;2022-12-19T04:46:43;7.70;99.90
7576;DHT22;3829;50.798;4.358;2022-12-19T04:49:09;7.80;99.90
7576;DHT22;3829;50.798;4.358;2022-12-19T04:51:35;7.80;99.90
7576;DHT22;3829;50.798;4.358;2022-12-19T04:54:00;7.80;99.90
7576;DHT22;3829;50.798;4.358;2022-12-19T04:56:26;7.80;99.90
7576;DHT22;3829;50.798;4.358;2022-12-19T04:58:58;7.80;99.90
7576;DHT22;3829;50.798;4.358;2022-12-19T05:01:24;7.80;99.90
7576;DHT22;3829;50.798;4.358;2022-12-19T05:03:50;7.80;99.90
7576;DHT22;3829;50.798;4.358;2022-12-19T05:06:17;7.80;99.90
7576;DHT22;3829;50.798;4.358;2022-12-19T05:08:43;7.90;99.90
7576;DHT22;3829;50.798;4.358;2022-12-19T05:11:11;7.90;99.90
7576;DHT22;3829;50.798;4.358;2022-12-19T05:13:36;7.80;99.90
7576;DHT22;3829;50.798;4.358;2022-12-19T05:16:04;7.80;99.90
7576;DHT22;3829;50.798;4.358;2022-12-19T05:18:30;7.80;99.90
7576;DHT22;3829;50.798;4.358;2022-12-19T05:20:56;7.90;99.90
7576;DHT22;3829;50.798;4.358;2022-12-19T05:23:22;7.90;99.90
7576;DHT22;3829;50.798;4.358;2022-12-19T05:25:48;7.90;99.90
7576;DHT22;3829;50.798;4.358;2022-12-19T05:28:14;7.90;99.90
7576;DHT22;3829;50.798;4.358;2022-12-19T05:30:40;8.10;99.90
7576;DHT22;3829;50.798;4.358;2022-12-19T05:33:06;8.00;99.90
7576;DHT22;3829;50.798;4.358;2022-12-19T05:35:33;8.00;99.90
7576;DHT22;3829;50.798;4.358;2022-12-19T05:37:59;8.00;99.90
7576;DHT22;3829;50.798;4.358;2022-12-19T05:40:24;8.00;99.90
7576;DHT22;3829;50.798;4.358;2022-12-19T05:42:50;8.00;99.90
7576;DHT22;3829;50.798;4.358;2022-12-19T05:45:16;7.90;99.90
7576;DHT22;3829;50.798;4.358;2022-12-19T05:47:43;8.00;99.90
7576;DHT22;3829;50.798;4.358;2022-12-19T05:50:11;8.00;99.90
7576;DHT22;3829;50.798;4.358;2022-12-19T05:52:38;8.00;99.90
7576;DHT22;3829;50.798;4.358;2022-12-19T05:55:05;8.10;99.90
7576;DHT22;3829;50.798;4.358;2022-12-19T05:57:31;8.00;99.90
7576;DHT22;3829;50.798;4.358;2022-12-19T05:59:57;8.00;99.90
7576;DHT22;3829;50.798;4.358;2022-12-19T06:02:22;8.00;99.90
7576;DHT22;3829;50.798;4.358;2022-12-19T06:04:48;8.10;99.90
7576;DHT22;3829;50.798;4.358;2022-12-19T06:07:13;8.00;99.90
7576;DHT22;3829;50.798;4.358;2022-12-19T06:09:39;8.10;99.90
7576;DHT22;3829;50.798;4.358;2022-12-19T06:12:05;8.10;99.90
7576;DHT22;3829;50.798;4.358;2022-12-19T06:14:31;8.10;99.90
7576;DHT22;3829;50.798;4.358;2022-12-19T06:16:56;8.10;99.90
7576;DHT22;3829;50.798;4.358;2022-12-19T06:19:22;8.10;99.90
7576;DHT22;3829;50.798;4.358;2022-12-19T06:21:48;8.10;99.90
7576;DHT22;3829;50.798;4.358;2022-12-19T06:24:14;8.10;99.90
7576;DHT22;3829;50.798;4.358;2022-12-19T06:26:39;8.10;99.90
7576;DHT22;3829;50.798;4.358;2022-12-19T06:29:05;8.10;99.90
7576;DHT22;3829;50.798;4.358;2022-12-19T06:31:30;8.10;99.90
7576;DHT22;3829;50.798;4.358;2022-12-19T06:33:56;8.10;99.90
7576;DHT22;3829;50.798;4.358;2022-12-19T06:36:29;8.10;99.90
7576;DHT22;3829;50.798;4.358;2022-12-19T06:38:56;8.20;99.90
7576;DHT22;3829;50.798;4.358;2022-12-19T06:41:22;8.20;99.90
7576;DHT22;3829;50.798;4.358;2022-12-19T06:44:09;8.20;99.90
7576;DHT22;3829;50.798;4.358;2022-12-19T06:46:36;8.20;99.90
7576;DHT22;3829;50.798;4.358;2022-12-19T06:49:02;8.10;99.90
7576;DHT22;3829;50.798;4.358;2022-12-19T06:51:28;8.20;99.90
7576;DHT22;3829;50.798;4.358;2022-12-19T06:53:53;8.20;99.90
7576;DHT22;3829;50.798;4.358;2022-12-19T06:56:19;8.20;99.90
7576;DHT22;3829;50.798;4.358;2022-12-19T06:58:45;8.20;99.90
7576;DHT22;3829;50.798;4.358;2022-12-19T07:03:50;8.30;99.90
7576;DHT22;3829;50.798;4.358;2022-12-19T07:06:15;8.30;99.90
7576;DHT22;3829;50.798;4.358;2022-12-19T07:08:41;8.30;99.90
7576;DHT22;3829;50.798;4.358;2022-12-19T07:11:07;8.30;99.90
7576;DHT22;3829;50.798;4.358;2022-12-19T07:13:32;8.30;99.90
7576;DHT22;3829;50.798;4.358;2022-12-19T07:16:01;8.30;99.90
7576;DHT22;3829;50.798;4.358;2022-12-19T07:18:29;8.40;99.90
7576;DHT22;3829;50.798;4.358;2022-12-19T07:20:56;8.40;99.90
7576;DHT22;3829;50.798;4.358;2022-12-19T07:23:22;8.50;99.90
7576;DHT22;3829;50.798;4.358;2022-12-19T07:25:48;8.50;99.90
7576;DHT22;3829;50.798;4.358;2022-12-19T07:28:14;8.60;99.90
7576;DHT22;3829;50.798;4.358;2022-12-19T07:30:41;8.60;99.90
7576;DHT22;3829;50.798;4.358;2022-12-19T07:33:06;8.70;99.90
7576;DHT22;3829;50.798;4.358;2022-12-19T07:35:32;8.60;99.90
7576;DHT22;3829;50.798;4.358;2022-12-19T07:38:05;8.60;99.90
7576;DHT22;3829;50.798;4.358;2022-12-19T07:40:31;8.60;99.90
7576;DHT22;3829;50.798;4.358;2022-12-19T07:43:04;8.60;99.90
7576;DHT22;3829;50.798;4.358;2022-12-19T07:45:31;8.50;99.90
7576;DHT22;3829;50.798;4.358;2022-12-19T07:48:00;8.50;99.90
7576;DHT22;3829;50.798;4.358;2022-12-19T07:50:26;8.50;99.90
7576;DHT22;3829;50.798;4.358;2022-12-19T07:52:52;8.50;99.90
7576;DHT22;3829;50.798;4.358;2022-12-19T07:55:17;8.60;99.90
7576;DHT22;3829;50.798;4.358;2022-12-19T07:57:43;8.60;99.90
7576;DHT22;3829;50.798;4.358;2022-12-19T08:00:09;8.70;99.90
7576;DHT22;3829;50.798;4.358;2022-12-19T08:02:35;8.70;99.90
7576;DHT22;3829;50.798;4.358;2022-12-19T08:05:01;8.70;99.90
7576;DHT22;3829;50.798;4.358;2022-12-19T08:07:26;8.70;99.90
7576;DHT22;3829;50.798;4.358;2022-12-19T08:09:52;8.70;99.90
7576;DHT22;3829;50.798;4.358;2022-12-19T08:12:18;8.80;99.90
7576;DHT22;3829;50.798;4.358;2022-12-19T08:14:43;8.80;99.90
7576;DHT22;3829;50.798;4.358;2022-12-19T08:17:09;8.80;99.90
7576;DHT22;3829;50.798;4.358;2022-12-19T08:19:34;8.80;99.90
7576;DHT22;3829;50.798;4.358;2022-12-19T08:22:00;8.80;99.90
7576;DHT22;3829;50.798;4.358;2022-12-19T08:24:25;8.80;99.90
7576;DHT22;3829;50.798;4.358;2022-12-19T08:26:51;8.80;99.90
7576;DHT22;3829;50.798;4.358;2022-12-19T08:29:16;8.80;99.90
7576;DHT22;3829;50.798;4.358;2022-12-19T08:31:42;8.80;99.90
7576;DHT22;3829;50.798;4.358;2022-12-19T08:34:08;8.80;99.90
7576;DHT22;3829;50.798;4.358;2022-12-19T08:36:33;8.80;99.90
7576;DHT22;3829;50.798;4.358;2022-12-19T08:38:59;8.80;99.90
7576;DHT22;3829;50.798;4.358;2022-12-19T08:41:25;8.80;99.90
7576;DHT22;3829;50.798;4.358;2022-12-19T08:43:52;8.80;99.90
7576;DHT22;3829;50.798;4.358;2022-12-19T08:46:19;8.90;99.90
7576;DHT22;3829;50.798;4.358;2022-12-19T08:48:45;8.90;99.90
7576;DHT22;3829;50.798;4.358;2022-12-19T08:51:12;9.00;99.90
7576;DHT22;3829;50.798;4.358;2022-12-19T08:53:41;8.90;99.90
7576;DHT22;3829;50.798;4.358;2022-12-19T08:56:18;8.90;99.90
7576;DHT22;3829;50.798;4.358;2022-12-19T08:58:44;9.00;99.90
7576;DHT22;3829;50.798;4.358;2022-12-19T09:01:15;9.10;99.90
7576;DHT22;3829;50.798;4.358;2022-12-19T09:03:43;9.10;99.90
7576;DHT22;3829;50.798;4.358;2022-12-19T09:06:11;9.10;99.90
7576;DHT22;3829;50.798;4.358;2022-12-19T09:08:37;9.10;99.90
7576;DHT22;3829;50.798;4.358;2022-12-19T09:11:07;9.10;99.90
7576;DHT22;3829;50.798;4.358;2022-12-19T09:13:34;9.10;99.90
7576;DHT22;3829;50.798;4.358;2022-12-19T09:16:17;9.10;99.90
7576;DHT22;3829;50.798;4.358;2022-12-19T09:18:44;9.10;99.90
7576;DHT22;3829;50.798;4.358;2022-12-19T09:21:11;9.00;99.90
7576;DHT22;3829;50.798;4.358;2022-12-19T09:23:38;9.00;99.90
7576;DHT22;3829;50.798;4.358;2022-12-19T09:26:09;9.00;99.90
7576;DHT22;3829;50.798;4.358;2022-12-19T09:28:36;9.00;99.90
7576;DHT22;3829;50.798;4.358;2022-12-19T09:31:05;9.00;99.90
7576;DHT22;3829;50.798;4.358;2022-12-19T09:33:34;8.90;99.90
7576;DHT22;3829;50.798;4.358;2022-12-19T09:36:00;9.00;99.90
7576;DHT22;3829;50.798;4.358;2022-12-19T09:38:27;9.00;99.90
7576;DHT22;3829;50.798;4.358;2022-12-19T09:44:04;9.10;99.90
7576;DHT22;3829;50.798;4.358;2022-12-19T09:46:37;9.10;99.90
7576;DHT22;3829;50.798;4.358;2022-12-19T09:49:13;9.10;99.90
7576;DHT22;3829;50.798;4.358;2022-12-19T09:54:38;9.10;99.90
7576;DHT22;3829;50.798;4.358;2022-12-19T09:57:13;9.10;99.90
7576;DHT22;3829;50.798;4.358;2022-12-19T09:59:45;9.20;99.90
7576;DHT22;3829;50.798;4.358;2022-12-19T10:02:22;9.20;99.90
7576;DHT22;3829;50.798;4.358;2022-12-19T10:05:04;9.20;99.90
7576;DHT22;3829;50.798;4.358;2022-12-19T10:07:31;9.20;99.90
7576;DHT22;3829;50.798;4.358;2022-12-19T10:09:57;9.20;99.90
7576;DHT22;3829;50.798;4.358;2022-12-19T10:12:41;9.30;99.90
7576;DHT22;3829;50.798;4.358;2022-12-19T10:15:12;9.40;99.90
7576;DHT22;3829;50.798;4.358;2022-12-19T10:20:34;9.40;99.90
7576;DHT22;3829;50.798;4.358;2022-12-19T10:25:59;9.50;99.90
7576;DHT22;3829;50.798;4.358;2022-12-19T10:28:42;9.50;99.90
7576;DHT22;3829;50.798;4.358;2022-12-19T10:36:46;9.70;99.90
7576;DHT22;3829;50.798;4.358;2022-12-19T10:39:30;9.70;99.90
7576;DHT22;3829;50.798;4.358;2022-12-19T10:42:27;9.80;99.90
7576;DHT22;3829;50.798;4.358;2022-12-19T10:44:58;9.90;99.90
7576;DHT22;3829;50.798;4.358;2022-12-19T10:47:24;10.00;99.90
7576;DHT22;3829;50.798;4.358;2022-12-19T10:49:49;10.10;99.90
7576;DHT22;3829;50.798;4.358;2022-12-19T10:52:48;10.10;99.90
7576;DHT22;3829;50.798;4.358;2022-12-19T10:55:48;10.30;99.90
7576;DHT22;3829;50.798;4.358;2022-12-19T10:58:35;10.20;99.90
7576;DHT22;3829;50.798;4.358;2022-12-19T11:01:17;10.40;99.90
7576;DHT22;3829;50.798;4.358;2022-12-19T11:03:47;10.60;99.90
7576;DHT22;3829;50.798;4.358;2022-12-19T11:12:09;10.80;99.90
7576;DHT22;3829;50.798;4.358;2022-12-19T11:14:38;10.90;99.90
7576;DHT22;3829;50.798;4.358;2022-12-19T11:17:04;11.00;99.90
7576;DHT22;3829;50.798;4.358;2022-12-19T11:19:35;11.00;99.90
7576;DHT22;3829;50.798;4.358;2022-12-19T11:22:18;11.10;99.90
7576;DHT22;3829;50.798;4.358;2022-12-19T11:24:49;11.10;99.90
7576;DHT22;3829;50.798;4.358;2022-12-19T11:27:35;11.20;99.90
7576;DHT22;3829;50.798;4.358;2022-12-19T11:32:42;11.30;99.90
7576;DHT22;3829;50.798;4.358;2022-12-19T11:38:00;11.40;99.90
7576;DHT22;3829;50.798;4.358;2022-12-19T11:48:47;11.30;99.90
7576;DHT22;3829;50.798;4.358;2022-12-19T11:53:50;11.40;99.90
7576;DHT22;3829;50.798;4.358;2022-12-19T11:56:21;11.50;99.90
7576;DHT22;3829;50.798;4.358;2022-12-19T11:58:54;11.40;99.90
7576;DHT22;3829;50.798;4.358;2022-12-19T12:04:37;11.30;99.90
7576;DHT22;3829;50.798;4.358;2022-12-19T12:07:04;11.30;99.90
7576;DHT22;3829;50.798;4.358;2022-12-19T12:09:42;11.30;99.90
7576;DHT22;3829;50.798;4.358;2022-12-19T12:12:24;11.40;99.90
7576;DHT22;3829;50.798;4.358;2022-12-19T12:15:09;11.40;99.90
7576;DHT22;3829;50.798;4.358;2022-12-19T12:20:43;11.60;99.90
7576;DHT22;3829;50.798;4.358;2022-12-19T12:23:19;11.60;99.90
7576;DHT22;3829;50.798;4.358;2022-12-19T12:29:17;11.80;99.90
7576;DHT22;3829;50.798;4.358;2022-12-19T12:32:25;11.80;99.90
7576;DHT22;3829;50.798;4.358;2022-12-19T12:35:16;11.90;99.90
7576;DHT22;3829;50.798;4.358;2022-12-19T12:38:05;11.80;99.90
7576;DHT22;3829;50.798;4.358;2022-12-19T12:40:56;11.80;99.90
7576;DHT22;3829;50.798;4.358;2022-12-19T12:46:36;11.60;99.90
7576;DHT22;3829;50.798;4.358;2022-12-19T12:49:07;11.60;99.90
7576;DHT22;3829;50.798;4.358;2022-12-19T12:51:38;11.60;99.90
7576;DHT22;3829;50.798;4.358;2022-12-19T12:54:06;11.60;99.90
7576;DHT22;3829;50.798;4.358;2022-12-19T12:56:34;11.60;99.90
7576;DHT22;3829;50.798;4.358;2022-12-19T13:01:33;11.70;99.90
7576;DHT22;3829;50.798;4.358;2022-12-19T13:04:22;11.60;99.90
7576;DHT22;3829;50.798;4.358;2022-12-19T13:09:25;11.60;99.90
7576;DHT22;3829;50.798;4.358;2022-12-19T13:17:11;11.70;99.90
7576;DHT22;3829;50.798;4.358;2022-12-19T13:19:55;11.70;99.90
7576;DHT22;3829;50.798;4.358;2022-12-19T13:24:55;11.60;99.90
7576;DHT22;3829;50.798;4.358;2022-12-19T13:38:18;11.70;99.90
7576;DHT22;3829;50.798;4.358;2022-12-19T13:40:58;11.70;99.90
7576;DHT22;3829;50.798;4.358;2022-12-19T13:43:35;11.70;99.90
7576;DHT22;3829;50.798;4.358;2022-12-19T13:48:49;11.70;99.90
7576;DHT22;3829;50.798;4.358;2022-12-19T13:51:15;11.80;99.90
7576;DHT22;3829;50.798;4.358;2022-12-19T13:53:42;11.70;99.90
7576;DHT22;3829;50.798;4.358;2022-12-19T13:56:11;11.70;99.90
7576;DHT22;3829;50.798;4.358;2022-12-19T13:58:50;11.80;99.90
7576;DHT22;3829;50.798;4.358;2022-12-19T14:01:24;11.80;99.90
7576;DHT22;3829;50.798;4.358;2022-12-19T14:03:53;11.80;99.90
7576;DHT22;3829;50.798;4.358;2022-12-19T14:06:28;11.80;99.90
7576;DHT22;3829;50.798;4.358;2022-12-19T14:09:04;11.80;99.90
7576;DHT22;3829;50.798;4.358;2022-12-19T14:11:38;11.60;99.90
7576;DHT22;3829;50.798;4.358;2022-12-19T14:14:07;11.60;99.90
7576;DHT22;3829;50.798;4.358;2022-12-19T14:16:54;11.50;99.90
7576;DHT22;3829;50.798;4.358;2022-12-19T14:19:25;11.40;99.90
7576;DHT22;3829;50.798;4.358;2022-12-19T14:21:52;11.40;99.90
7576;DHT22;3829;50.798;4.358;2022-12-19T14:24:20;11.40;99.90
7576;DHT22;3829;50.798;4.358;2022-12-19T14:26:55;11.40;99.90
7576;DHT22;3829;50.798;4.358;2022-12-19T14:29:26;11.40;99.90
7576;DHT22;3829;50.798;4.358;2022-12-19T14:31:53;11.40;99.90
7576;DHT22;3829;50.798;4.358;2022-12-19T14:34:26;11.40;99.90
7576;DHT22;3829;50.798;4.358;2022-12-19T14:36:55;11.30;99.90
7576;DHT22;3829;50.798;4.358;2022-12-19T14:39:33;11.30;99.90
7576;DHT22;3829;50.798;4.358;2022-12-19T14:42:05;11.30;99.90
7576;DHT22;3829;50.798;4.358;2022-12-19T14:44:54;11.40;99.90
7576;DHT22;3829;50.798;4.358;2022-12-19T14:47:31;11.30;99.90
7576;DHT22;3829;50.798;4.358;2022-12-19T14:49:59;11.30;99.90
7576;DHT22;3829;50.798;4.358;2022-12-19T14:52:31;11.30;99.90
7576;DHT22;3829;50.798;4.358;2022-12-19T14:57:41;11.40;99.90
7576;DHT22;3829;50.798;4.358;2022-12-19T15:00:28;11.50;99.90
7576;DHT22;3829;50.798;4.358;2022-12-19T15:02:57;11.50;99.90
7576;DHT22;3829;50.798;4.358;2022-12-19T15:05:25;11.50;99.90
7576;DHT22;3829;50.798;4.358;2022-12-19T15:07:53;11.40;99.90
7576;DHT22;3829;50.798;4.358;2022-12-19T15:10:29;11.50;99.90
7576;DHT22;3829;50.798;4.358;2022-12-19T15:12:59;11.50;99.90
7576;DHT22;3829;50.798;4.358;2022-12-19T15:18:38;11.40;99.90
7576;DHT22;3829;50.798;4.358;2022-12-19T15:21:14;11.40;99.90
7576;DHT22;3829;50.798;4.358;2022-12-19T15:23:42;11.40;99.90
7576;DHT22;3829;50.798;4.358;2022-12-19T15:26:16;11.50;99.90
7576;DHT22;3829;50.798;4.358;2022-12-19T15:28:49;11.50;99.90
7576;DHT22;3829;50.798;4.358;2022-12-19T15:31:39;11.40;99.90
7576;DHT22;3829;50.798;4.358;2022-12-19T15:34:19;11.40;99.90
7576;DHT22;3829;50.798;4.358;2022-12-19T15:36:47;11.40;99.90
7576;DHT22;3829;50.798;4.358;2022-12-19T15:39:12;11.40;99.90
7576;DHT22;3829;50.798;4.358;2022-12-19T15:41:43;11.30;99.90
7576;DHT22;3829;50.798;4.358;2022-12-19T15:46:45;11.20;99.90
7576;DHT22;3829;50.798;4.358;2022-12-19T15:49:17;11.20;99.90
7576;DHT22;3829;50.798;4.358;2022-12-19T15:51:43;11.20;99.90
7576;DHT22;3829;50.798;4.358;2022-12-19T15:54:09;11.20;99.90
7576;DHT22;3829;50.798;4.358;2022-12-19T15:56:48;11.30;99.90
7576;DHT22;3829;50.798;4.358;2022-12-19T15:59:35;11.30;99.90
7576;DHT22;3829;50.798;4.358;2022-12-19T16:02:16;11.30;99.90
7576;DHT22;3829;50.798;4.358;2022-12-19T16:04:43;11.40;99.90
7576;DHT22;3829;50.798;4.358;2022-12-19T16:07:17;11.50;99.90
7576;DHT22;3829;50.798;4.358;2022-12-19T16:09:44;11.30;99.90
7576;DHT22;3829;50.798;4.358;2022-12-19T16:12:16;11.30;99.90
7576;DHT22;3829;50.798;4.358;2022-12-19T16:14:44;11.20;99.90
7576;DHT22;3829;50.798;4.358;2022-12-19T16:17:14;11.20;99.90
7576;DHT22;3829;50.798;4.358;2022-12-19T16:19:42;11.30;99.90
7576;DHT22;3829;50.798;4.358;2022-12-19T16:22:16;11.30;99.90
7576;DHT22;3829;50.798;4.358;2022-12-19T16:24:43;11.40;99.90
7576;DHT22;3829;50.798;4.358;2022-12-19T16:27:12;11.40;99.90
7576;DHT22;3829;50.798;4.358;2022-12-19T16:29:41;11.40;99.90
7576;DHT22;3829;50.798;4.358;2022-12-19T16:32:11;11.40;99.90
7576;DHT22;3829;50.798;4.358;2022-12-19T16:34:37;11.40;99.90
7576;DHT22;3829;50.798;4.358;2022-12-19T16:37:03;11.40;99.90
7576;DHT22;3829;50.798;4.358;2022-12-19T16:39:29;11.30;99.90
7576;DHT22;3829;50.798;4.358;2022-12-19T16:41:54;11.30;99.90
7576;DHT22;3829;50.798;4.358;2022-12-19T16:44:21;11.30;99.90
7576;DHT22;3829;50.798;4.358;2022-12-19T16:46:49;11.30;99.90
7576;DHT22;3829;50.798;4.358;2022-12-19T16:49:18;11.30;99.90
7576;DHT22;3829;50.798;4.358;2022-12-19T16:51:44;11.30;99.90
7576;DHT22;3829;50.798;4.358;2022-12-19T16:54:11;11.40;99.90
7576;DHT22;3829;50.798;4.358;2022-12-19T16:56:45;11.50;99.90
7576;DHT22;3829;50.798;4.358;2022-12-19T16:59:22;11.40;99.90
7576;DHT22;3829;50.798;4.358;2022-12-19T17:01:49;11.40;99.90
7576;DHT22;3829;50.798;4.358;2022-12-19T17:04:19;11.40;99.90
7576;DHT22;3829;50.798;4.358;2022-12-19T17:06:46;11.40;99.90
7576;DHT22;3829;50.798;4.358;2022-12-19T17:09:23;11.40;99.90
7576;DHT22;3829;50.798;4.358;2022-12-19T17:11:56;11.40;99.90
7576;DHT22;3829;50.798;4.358;2022-12-19T17:14:25;11.40;99.90
7576;DHT22;3829;50.798;4.358;2022-12-19T17:16:53;11.40;99.90
7576;DHT22;3829;50.798;4.358;2022-12-19T17:19:37;11.40;99.90
7576;DHT22;3829;50.798;4.358;2022-12-19T17:22:10;11.40;99.90
7576;DHT22;3829;50.798;4.358;2022-12-19T17:24:36;11.40;99.90
7576;DHT22;3829;50.798;4.358;2022-12-19T17:27:02;11.30;99.90
7576;DHT22;3829;50.798;4.358;2022-12-19T17:29:28;11.40;99.90
7576;DHT22;3829;50.798;4.358;2022-12-19T17:31:53;11.40;99.90
7576;DHT22;3829;50.798;4.358;2022-12-19T17:34:29;11.40;99.90
7576;DHT22;3829;50.798;4.358;2022-12-19T17:36:56;11.40;99.90
7576;DHT22;3829;50.798;4.358;2022-12-19T17:39:24;11.40;99.90
7576;DHT22;3829;50.798;4.358;2022-12-19T17:41:51;11.30;99.90
7576;DHT22;3829;50.798;4.358;2022-12-19T17:44:18;11.30;99.90
7576;DHT22;3829;50.798;4.358;2022-12-19T17:46:45;11.40;99.90
7576;DHT22;3829;50.798;4.358;2022-12-19T17:49:16;11.30;99.90
7576;DHT22;3829;50.798;4.358;2022-12-19T17:51:47;11.20;99.90
7576;DHT22;3829;50.798;4.358;2022-12-19T17:54:14;11.20;99.90
7576;DHT22;3829;50.798;4.358;2022-12-19T17:56:40;11.20;99.90
7576;DHT22;3829;50.798;4.358;2022-12-19T17:59:05;11.30;99.90
7576;DHT22;3829;50.798;4.358;2022-12-19T18:01:31;11.20;99.90
7576;DHT22;3829;50.798;4.358;2022-12-19T18:03:58;11.20;99.90
7576;DHT22;3829;50.798;4.358;2022-12-19T18:06:24;11.20;99.90
7576;DHT22;3829;50.798;4.358;2022-12-19T18:08:50;11.20;99.90
7576;DHT22;3829;50.798;4.358;2022-12-19T18:11:22;11.20;99.90
7576;DHT22;3829;50.798;4.358;2022-12-19T18:13:48;11.30;99.90
7576;DHT22;3829;50.798;4.358;2022-12-19T18:16:18;11.20;99.90
7576;DHT22;3829;50.798;4.358;2022-12-19T18:18:45;11.20;99.90
7576;DHT22;3829;50.798;4.358;2022-12-19T18:21:19;11.20;99.90
7576;DHT22;3829;50.798;4.358;2022-12-19T18:23:47;11.10;99.90
7576;DHT22;3829;50.798;4.358;2022-12-19T18:26:13;11.00;99.90
7576;DHT22;3829;50.798;4.358;2022-12-19T18:28:40;11.00;99.90
7576;DHT22;3829;50.798;4.358;2022-12-19T18:31:25;11.20;99.90
7576;DHT22;3829;50.798;4.358;2022-12-19T18:33:52;11.20;99.90